createdAt,value
2022-08-12T00:00:02.797Z,74352.31
2022-08-12T00:02:48.861Z,74352.31
2022-08-12T00:05:34.855Z,74389.28
2022-08-12T00:08:30.918Z,74368.75
2022-08-12T00:11:24.016Z,74364.63
2022-08-12T00:14:09.931Z,74397.50
2022-08-12T00:16:55.768Z,74372.84
2022-08-12T00:19:41.629Z,74372.84
2022-08-12T00:22:27.267Z,74370.81
2022-08-12T00:25:19.760Z,74364.63
2022-08-12T00:28:05.894Z,74397.50
2022-08-12T00:30:52.289Z,74385.19
2022-08-12T00:33:52.523Z,74385.19
2022-08-12T00:36:45.866Z,74372.84
2022-08-12T00:39:34.845Z,74364.63
2022-08-12T00:42:11.100Z,74405.72
2022-08-12T00:44:40.144Z,74383.13
2022-08-12T00:47:07.564Z,74389.28
2022-08-12T00:49:51.533Z,74405.72
2022-08-12T00:52:19.168Z,74389.28
2022-08-12T00:54:54.820Z,74385.19
2022-08-12T00:57:30.137Z,74389.28
2022-08-12T01:00:08.571Z,74397.50
2022-08-12T01:02:45.727Z,74385.19
2022-08-12T01:05:35.550Z,74376.97
2022-08-12T01:08:22.018Z,74372.84
2022-08-12T01:11:07.831Z,74381.06
2022-08-12T01:13:36.290Z,74381.06
2022-08-12T01:16:05.306Z,74385.19
2022-08-12T01:18:34.361Z,74395.47
2022-08-12T01:21:18.258Z,74389.28
2022-08-12T01:23:51.174Z,74409.84
2022-08-12T01:26:23.581Z,74399.56
2022-08-12T01:28:54.530Z,74397.50
2022-08-12T01:31:23.350Z,74389.28
2022-08-12T01:34:35.381Z,74395.47
2022-08-12T01:37:02.020Z,74401.63
2022-08-12T01:39:33.697Z,74407.78
2022-08-12T01:42:08.465Z,74413.94
2022-08-12T01:44:36.401Z,74418.06
2022-08-12T01:47:32.899Z,74413.94
2022-08-12T01:50:36.832Z,74411.88
2022-08-12T01:53:06.408Z,74409.84
2022-08-12T01:55:35.212Z,74430.38
2022-08-12T01:58:27.627Z,74432.44
2022-08-12T02:01:04.719Z,74426.28
2022-08-12T02:04:05.587Z,74411.88
2022-08-12T02:06:55.180Z,74422.16
2022-08-12T02:09:47.634Z,74434.50
2022-08-12T02:12:28.682Z,74424.22
2022-08-12T02:15:22.676Z,74436.53
2022-08-12T02:18:12.564Z,74418.06
2022-08-12T02:21:29.830Z,74422.16
2022-08-12T02:23:58.206Z,74428.31
2022-08-12T02:26:25.568Z,74411.88
2022-08-12T02:28:52.866Z,74418.06
2022-08-12T02:31:20.406Z,74413.94
2022-08-12T02:33:47.698Z,74413.94
2022-08-12T02:36:16.515Z,74399.56
2022-08-12T02:38:44.093Z,74403.66
2022-08-12T02:41:12.226Z,74405.72
2022-08-12T02:43:44.757Z,74395.47
2022-08-12T02:46:14.776Z,74401.63
2022-08-12T02:48:51.542Z,74403.66
2022-08-12T02:51:20.850Z,74397.50
2022-08-12T02:54:05.109Z,74418.06
2022-08-12T02:56:40.814Z,74418.06
2022-08-12T02:59:10.675Z,74416.00
2022-08-12T03:01:47.518Z,74401.63
2022-08-12T03:04:33.403Z,74401.63
2022-08-12T03:07:06.856Z,74416.00
2022-08-12T03:10:04.610Z,74416.00
2022-08-12T03:12:25.024Z,74411.88
2022-08-12T03:14:53.137Z,74426.28
2022-08-12T03:17:26.324Z,74409.84
2022-08-12T03:20:10.071Z,74426.28
2022-08-12T03:22:42.219Z,74426.28
2022-08-12T03:25:16.273Z,74426.28
2022-08-12T03:27:51.785Z,74418.06
2022-08-12T03:30:19.504Z,74409.84
2022-08-12T03:32:50.958Z,74405.72
2022-08-12T03:35:40.606Z,74409.84
2022-08-12T03:38:12.135Z,74405.72
2022-08-12T03:41:09.329Z,74391.34
2022-08-12T03:44:00.288Z,74395.47
2022-08-12T03:46:50.584Z,74401.63
2022-08-12T03:49:36.531Z,74405.72
2022-08-12T03:52:22.925Z,74413.94
2022-08-12T03:55:10.179Z,74399.56
2022-08-12T03:57:56.144Z,74405.72
2022-08-12T04:00:24.181Z,74389.28
2022-08-12T04:03:01.673Z,74368.75
2022-08-12T04:05:54.393Z,74376.97
2022-08-12T04:08:17.207Z,74381.06
2022-08-12T04:11:03.048Z,74366.69
2022-08-12T04:13:30.430Z,74352.31
2022-08-12T04:15:58.641Z,74376.97
2022-08-12T04:18:26.062Z,74381.06
2022-08-12T04:20:53.475Z,74348.22
2022-08-12T04:23:20.754Z,74335.88
2022-08-12T04:25:48.066Z,74340.00
2022-08-12T04:28:15.363Z,74352.31
2022-08-12T04:30:43.263Z,74352.31
2022-08-12T04:33:10.672Z,74348.22
2022-08-12T04:35:37.909Z,74323.56
2022-08-12T04:38:05.440Z,74342.03
2022-08-12T04:40:34.037Z,74335.88
2022-08-12T04:43:01.827Z,74321.50
2022-08-12T04:45:30.660Z,74327.66
2022-08-12T04:47:58.046Z,74315.34
2022-08-12T04:50:34.779Z,74315.34
2022-08-12T04:53:08.252Z,74317.38
2022-08-12T04:55:37.645Z,74352.31
2022-08-12T04:58:05.307Z,74344.09
2022-08-12T05:00:33.183Z,74381.06
2022-08-12T05:03:00.620Z,74434.50
2022-08-12T05:05:30.348Z,74420.09
2022-08-12T05:08:00.039Z,74422.16
2022-08-12T05:10:33.370Z,74418.06
2022-08-12T05:13:28.489Z,74397.50
2022-08-12T05:16:03.856Z,74389.28
2022-08-12T05:18:39.464Z,74399.56
2022-08-12T05:21:10.333Z,74385.19
2022-08-12T05:23:38.159Z,74356.44
2022-08-12T05:26:06.272Z,74360.53
2022-08-12T05:28:33.690Z,74342.03
2022-08-12T05:31:03.901Z,74335.88
2022-08-12T05:33:37.891Z,74323.56
2022-08-12T05:36:07.729Z,74311.22
2022-08-12T05:38:54.232Z,74311.22
2022-08-12T05:41:21.635Z,74288.63
2022-08-12T05:43:56.990Z,74278.34
2022-08-12T05:46:25.090Z,74286.56
2022-08-12T05:48:54.526Z,74290.69
2022-08-12T05:51:40.691Z,74292.75
2022-08-12T05:54:09.102Z,74276.31
2022-08-12T05:56:36.526Z,74294.78
2022-08-12T05:59:07.441Z,74286.56
2022-08-12T06:02:12.620Z,74282.47
2022-08-12T06:04:22.326Z,74303.00
2022-08-12T06:06:53.480Z,74307.13
2022-08-12T06:09:22.800Z,74309.16
2022-08-12T06:12:05.998Z,74333.81
2022-08-12T06:14:37.043Z,74340.00
2022-08-12T06:17:05.560Z,74358.47
2022-08-12T06:20:29.455Z,74360.53
2022-08-12T06:22:20.271Z,74397.50
2022-08-12T06:24:49.898Z,74397.50
2022-08-12T06:27:18.889Z,74397.50
2022-08-12T06:30:10.032Z,74426.28
2022-08-12T06:32:35.684Z,74413.94
2022-08-12T06:35:25.073Z,74422.16
2022-08-12T06:37:56.387Z,74446.81
2022-08-12T06:40:43.206Z,74422.16
2022-08-12T06:43:10.469Z,74434.50
2022-08-12T06:45:45.929Z,74450.94
2022-08-12T06:48:14.064Z,74487.91
2022-08-12T06:50:42.531Z,74487.91
2022-08-12T06:53:11.397Z,74487.91
2022-08-12T06:55:56.690Z,74512.56
2022-08-12T06:58:28.916Z,74496.13
2022-08-12T07:00:57.774Z,74510.50
2022-08-12T07:03:28.683Z,74516.66
2022-08-12T07:06:00.624Z,74524.88
2022-08-12T07:08:29.206Z,74516.66
2022-08-12T07:10:59.266Z,74487.91
2022-08-12T07:13:28.020Z,74463.25
2022-08-12T07:15:58.804Z,74459.16
2022-08-12T07:18:44.048Z,74479.69
2022-08-12T07:21:12.249Z,74467.34
2022-08-12T07:23:40.210Z,74469.41
2022-08-12T07:26:09.606Z,74455.03
2022-08-12T07:28:41.790Z,74465.31
2022-08-12T07:31:09.365Z,74463.25
2022-08-12T07:33:38.537Z,74459.16
2022-08-12T07:36:13.966Z,74465.31
2022-08-12T07:38:44.483Z,74438.59
2022-08-12T07:41:32.272Z,74422.16
2022-08-12T07:44:05.359Z,74418.06
2022-08-12T07:46:40.982Z,74450.94
2022-08-12T07:49:10.233Z,74424.22
2022-08-12T07:51:37.807Z,74457.09
2022-08-12T07:54:09.324Z,74432.44
2022-08-12T07:56:38.313Z,74405.72
2022-08-12T07:59:06.495Z,74381.06
2022-08-12T08:01:33.993Z,74360.53
2022-08-12T08:04:19.932Z,74356.44
2022-08-12T08:06:47.432Z,74325.59
2022-08-12T08:09:16.253Z,74307.13
2022-08-12T08:12:02.217Z,74278.34
2022-08-12T08:14:31.775Z,74243.44
2022-08-12T08:17:00.215Z,74208.50
2022-08-12T08:19:29.338Z,74179.75
2022-08-12T08:21:58.882Z,74132.50
2022-08-12T08:24:28.113Z,74093.47
2022-08-12T08:26:57.282Z,74015.41
2022-08-12T08:29:24.823Z,74015.41
2022-08-12T08:31:54.828Z,73933.25
2022-08-12T08:34:47.197Z,73925.03
2022-08-12T08:37:10.691Z,73890.13
2022-08-12T08:39:42.894Z,73879.84
2022-08-12T08:42:28.791Z,73851.09
2022-08-12T08:44:58.819Z,73818.22
2022-08-12T08:47:26.295Z,73908.59
2022-08-12T08:49:54.764Z,73892.19
2022-08-12T08:52:38.940Z,73871.63
2022-08-12T08:55:20.838Z,73888.06
2022-08-12T08:57:53.636Z,73916.81
2022-08-12T09:00:21.573Z,73912.72
2022-08-12T09:02:58.703Z,73920.94
2022-08-12T09:05:28.027Z,73978.44
2022-08-12T09:08:13.150Z,73982.56
2022-08-12T09:10:55.233Z,73945.59
2022-08-12T09:14:09.869Z,73904.50
2022-08-12T09:16:20.789Z,73849.03
2022-08-12T09:18:52.204Z,73779.19
2022-08-12T09:21:23.254Z,73818.22
2022-08-12T09:24:00.666Z,73896.28
2022-08-12T09:30:11.453Z,73908.59
2022-08-12T09:32:55.630Z,73929.16
2022-08-12T09:34:57.749Z,73908.59
2022-08-12T09:37:26.810Z,73859.31
2022-08-12T09:40:02.543Z,73838.78
2022-08-12T09:43:17.457Z,73754.56
2022-08-12T09:46:11.195Z,73768.94
2022-08-12T09:48:36.701Z,73933.25
2022-08-12T09:51:16.569Z,73929.16
2022-08-12T09:54:05.568Z,73935.31
2022-08-12T09:57:01.848Z,73988.72
2022-08-12T10:00:15.874Z,73964.06
2022-08-12T10:02:42.719Z,73999.00
2022-08-12T10:05:00.601Z,74027.75
2022-08-12T10:07:39.537Z,74025.69
2022-08-12T10:10:24.266Z,74033.91
2022-08-12T10:13:12.808Z,74042.13
2022-08-12T10:16:01.580Z,74035.97
2022-08-12T10:18:35.512Z,74044.19
2022-08-12T10:21:19.646Z,74023.63
2022-08-12T10:23:51.415Z,74011.31
2022-08-12T10:26:39.515Z,74068.81
2022-08-12T10:30:03.118Z,74077.03
2022-08-12T10:32:43.125Z,74083.22
2022-08-12T10:35:09.535Z,74081.16
2022-08-12T10:38:39.346Z,74072.94
2022-08-12T10:40:31.531Z,74093.47
2022-08-12T10:43:19.435Z,74081.16
2022-08-12T10:45:49.599Z,74093.47
2022-08-12T10:48:33.470Z,74118.13
2022-08-12T10:51:49.007Z,74130.44
2022-08-12T10:54:00.959Z,74132.50
2022-08-12T10:56:34.711Z,74165.38
2022-08-12T10:59:10.794Z,74146.88
2022-08-12T11:04:16.832Z,74142.78
2022-08-12T11:04:39.380Z,74138.66
2022-08-12T11:08:36.596Z,74146.88
2022-08-12T11:10:01.511Z,74146.88
2022-08-12T11:12:54.770Z,74126.34
2022-08-12T11:15:33.174Z,74111.97
2022-08-12T11:18:17.792Z,74089.38
2022-08-12T11:20:47.552Z,74081.16
2022-08-12T11:23:36.259Z,74056.50
2022-08-12T11:26:05.379Z,74068.81
2022-08-12T11:28:37.423Z,74085.25
2022-08-12T11:31:07.227Z,74077.03
2022-08-12T11:34:05.621Z,74081.16
2022-08-12T11:36:27.332Z,74122.25
2022-08-12T11:38:55.823Z,74126.34
2022-08-12T11:41:31.842Z,74130.44
2022-08-12T11:44:30.647Z,74159.22
2022-08-12T11:46:51.397Z,74167.44
2022-08-12T11:49:32.437Z,74175.66
2022-08-12T11:52:01.324Z,74183.88
2022-08-12T11:54:29.569Z,74183.88
2022-08-12T11:56:59.854Z,74183.88
2022-08-12T12:02:20.188Z,74099.63
2022-08-12T12:04:52.478Z,74064.72
2022-08-12T12:08:39.053Z,74089.38
2022-08-12T12:10:12.426Z,74159.22
2022-08-12T12:12:41.333Z,74204.41
2022-08-12T12:15:09.813Z,74253.72
2022-08-12T12:17:39.058Z,74307.13
2022-08-12T12:20:11.590Z,74327.66
2022-08-12T12:22:40.800Z,74352.31
2022-08-12T12:25:13.677Z,74385.19
2022-08-12T12:28:06.311Z,74381.06
2022-08-12T12:30:34.638Z,74383.13
2022-08-12T12:33:02.036Z,74360.53
2022-08-12T12:36:16.654Z,74352.31
2022-08-12T12:38:17.552Z,74356.44
2022-08-12T12:40:45.893Z,74342.03
2022-08-12T12:43:28.599Z,74327.66
2022-08-12T12:46:05.652Z,74315.34
2022-08-12T12:48:32.994Z,74313.28
2022-08-12T12:51:49.030Z,74288.63
2022-08-12T12:54:07.489Z,74274.25
2022-08-12T12:56:42.562Z,74261.94
2022-08-12T12:59:34.960Z,74253.72
2022-08-12T13:02:08.142Z,74261.94
2022-08-12T13:04:37.218Z,74257.81
2022-08-12T13:07:06.449Z,74241.38
2022-08-12T13:09:36.127Z,74237.28
2022-08-12T13:12:09.022Z,74220.84
2022-08-12T13:14:39.835Z,74208.50
2022-08-12T13:17:14.452Z,74206.47
2022-08-12T13:19:48.397Z,74194.13
2022-08-12T13:22:21.246Z,74181.81
2022-08-12T13:24:55.008Z,74157.16
2022-08-12T13:27:35.181Z,74153.06
2022-08-12T13:30:13.061Z,74163.31
2022-08-12T13:32:57.700Z,74151.00
2022-08-12T13:36:02.935Z,74130.44
2022-08-12T13:38:13.740Z,74109.91
2022-08-12T13:40:41.050Z,74109.91
2022-08-12T13:43:08.342Z,74077.03
2022-08-12T13:45:41.037Z,74019.53
2022-08-12T13:48:08.686Z,73925.03
2022-08-12T13:50:40.564Z,73904.50
2022-08-12T13:53:24.670Z,73900.38
2022-08-12T13:56:05.605Z,73801.78
2022-08-12T13:58:37.427Z,73818.22
2022-08-12T14:01:06.357Z,73818.22
2022-08-12T14:03:50.677Z,73838.78
2022-08-12T14:06:19.046Z,73877.78
2022-08-12T14:08:49.909Z,73890.13
2022-08-12T14:11:19.174Z,73927.09
2022-08-12T14:14:04.206Z,73927.09
2022-08-12T14:16:46.986Z,73896.28
2022-08-12T14:19:25.037Z,73826.44
2022-08-12T14:22:01.206Z,73678.56
2022-08-12T14:24:35.589Z,73668.28
2022-08-12T14:27:03.819Z,73555.31
2022-08-12T14:29:56.244Z,73510.13
2022-08-12T14:32:24.116Z,73425.94
2022-08-12T14:34:52.974Z,73485.50
2022-08-12T14:37:57.279Z,73493.72
2022-08-12T14:40:18.365Z,73619.00
2022-08-12T14:42:46.949Z,73575.88
2022-08-12T14:45:14.643Z,73604.63
2022-08-12T14:47:51.353Z,73579.97
2022-08-12T14:50:41.230Z,73520.41
2022-08-12T14:59:20.681Z,73859.31
2022-08-12T15:01:52.171Z,73966.13
2022-08-12T15:04:28.672Z,74035.97
2022-08-12T15:06:56.567Z,74114.03
2022-08-12T15:09:29.079Z,74111.97
2022-08-12T15:12:03.522Z,74130.44
2022-08-12T15:14:32.155Z,74161.28
2022-08-12T15:17:02.793Z,74183.88
2022-08-12T15:20:11.241Z,74227.00
2022-08-12T15:22:39.647Z,74243.44
2022-08-12T15:25:07.651Z,74245.50
2022-08-12T15:28:03.851Z,74259.88
2022-08-12T15:30:30.432Z,74257.81
2022-08-12T15:32:58.364Z,74270.16
2022-08-12T15:35:31.258Z,74290.69
2022-08-12T15:38:12.028Z,74298.91
2022-08-12T15:40:48.463Z,74288.63
2022-08-12T15:44:16.458Z,74298.91
2022-08-12T15:46:06.969Z,74298.91
2022-08-12T15:48:47.156Z,74282.47
2022-08-12T15:51:59.715Z,74266.03
2022-08-12T15:54:34.917Z,74266.03
2022-08-12T15:57:08.387Z,74257.81
2022-08-12T16:00:00.653Z,74266.03
2022-08-12T16:02:27.053Z,74257.81
2022-08-12T16:04:55.124Z,74253.72
2022-08-12T16:07:30.248Z,74261.94
2022-08-12T16:10:08.797Z,74270.16
2022-08-12T16:12:43.184Z,74278.34
2022-08-12T16:15:15.250Z,74278.34
2022-08-12T16:18:18.615Z,74286.56
2022-08-12T16:20:34.018Z,74284.53
2022-08-12T16:23:14.837Z,74280.41
2022-08-12T16:26:05.190Z,74274.25
2022-08-12T16:28:36.521Z,74276.31
2022-08-12T16:31:05.563Z,74280.41
2022-08-12T16:33:56.450Z,74284.53
2022-08-12T16:36:29.255Z,74307.13
2022-08-12T16:38:56.899Z,74317.38
2022-08-12T16:41:24.375Z,74307.13
2022-08-12T16:43:55.435Z,74319.44
2022-08-12T16:46:32.135Z,74317.38
2022-08-12T16:49:08.705Z,74305.06
2022-08-12T16:51:45.940Z,74303.00
2022-08-12T16:54:16.751Z,74321.50
2022-08-12T16:56:54.640Z,74337.94
2022-08-12T16:59:30.758Z,74358.47
2022-08-12T17:01:58.753Z,74356.44
2022-08-12T17:04:28.195Z,74372.84
2022-08-12T17:06:56.008Z,74395.47
2022-08-12T17:09:25.114Z,74381.06
2022-08-12T17:11:52.922Z,74391.34
2022-08-12T17:14:23.489Z,74403.66
2022-08-12T17:16:55.426Z,74434.50
2022-08-12T17:20:29.617Z,74434.50
2022-08-12T17:22:15.041Z,74436.53
2022-08-12T17:24:43.830Z,74442.72
2022-08-12T17:27:16.059Z,74434.50
2022-08-12T17:30:03.033Z,74442.72
2022-08-12T17:32:35.064Z,74430.38
2022-08-12T17:35:21.057Z,74422.16
2022-08-12T17:37:54.543Z,74434.50
2022-08-12T17:40:35.805Z,74434.50
2022-08-12T17:43:51.779Z,74434.50
2022-08-12T17:45:58.967Z,74438.59
2022-08-12T17:48:34.847Z,74440.66
2022-08-12T17:51:15.525Z,74446.81
2022-08-12T17:54:10.240Z,74452.97
2022-08-12T17:56:36.860Z,74479.69
2022-08-12T17:59:04.364Z,74467.34
2022-08-12T18:01:35.925Z,74459.16
2022-08-12T18:04:22.390Z,74446.81
2022-08-12T18:06:55.778Z,74465.31
2022-08-12T18:09:35.991Z,74467.34
2022-08-12T18:12:24.479Z,74479.69
2022-08-12T18:14:58.325Z,74461.19
2022-08-12T18:17:29.189Z,74457.09
2022-08-12T18:20:05.750Z,74438.59
2022-08-12T18:22:35.666Z,74455.03
2022-08-12T18:25:06.481Z,74450.94
2022-08-12T18:27:44.685Z,74438.59
2022-08-12T18:30:21.055Z,74457.09
2022-08-12T18:33:03.190Z,74448.88
2022-08-12T18:35:46.538Z,74442.72
2022-08-12T18:38:19.911Z,74438.59
2022-08-12T18:41:06.050Z,74440.66
2022-08-12T18:43:39.111Z,74471.47
2022-08-12T18:46:23.692Z,74471.47
2022-08-12T18:48:57.014Z,74477.63
2022-08-12T18:51:49.336Z,74459.16
2022-08-12T18:54:27.024Z,74475.56
2022-08-12T18:56:55.680Z,74463.25
2022-08-12T19:00:01.516Z,74479.69
2022-08-12T19:02:20.629Z,74489.97
2022-08-12T19:04:53.510Z,74479.69
2022-08-12T19:07:29.718Z,74477.63
2022-08-12T19:10:13.556Z,74475.56
2022-08-12T19:12:59.514Z,74475.56
2022-08-12T19:15:27.367Z,74479.69
2022-08-12T19:18:02.984Z,74481.75
2022-08-12T19:20:32.023Z,74500.22
2022-08-12T19:23:02.396Z,74489.97
2022-08-12T19:26:00.136Z,74496.13
2022-08-12T19:28:30.080Z,74510.50
2022-08-12T19:31:58.339Z,74504.34
2022-08-12T19:35:06.989Z,74496.13
2022-08-12T19:37:27.373Z,74516.66
2022-08-12T19:40:09.128Z,74516.66
2022-08-12T19:42:53.363Z,74516.66
2022-08-12T19:45:22.345Z,74514.63
2022-08-12T19:47:49.761Z,74529.00
2022-08-12T19:50:20.196Z,74524.88
2022-08-12T19:52:47.808Z,74533.09
2022-08-12T19:55:21.545Z,74533.09
2022-08-12T19:58:02.376Z,74524.88
2022-08-12T20:00:34.928Z,74531.03
2022-08-12T20:03:04.622Z,74551.59
2022-08-12T20:06:06.584Z,74545.44
2022-08-12T20:08:34.310Z,74551.59
2022-08-12T20:12:10.297Z,74543.38
2022-08-12T20:14:01.469Z,74524.88
2022-08-12T20:16:56.524Z,74545.44
2022-08-12T20:19:53.167Z,74547.47
2022-08-12T20:22:24.114Z,74537.22
2022-08-12T20:25:07.231Z,74551.59
2022-08-12T20:28:03.255Z,74545.44
2022-08-12T20:30:37.609Z,74539.25
2022-08-12T20:33:17.348Z,74545.44
2022-08-12T20:36:13.007Z,74537.22
2022-08-12T20:38:39.653Z,74545.44
2022-08-12T20:41:16.159Z,74561.88
2022-08-12T20:43:44.294Z,74551.59
2022-08-12T20:46:13.654Z,74553.66
2022-08-12T20:48:43.642Z,74570.09
2022-08-12T20:51:15.965Z,74561.88
2022-08-12T20:53:58.931Z,74549.53
2022-08-12T20:56:37.159Z,74543.38
2022-08-12T20:59:14.865Z,74537.22
2022-08-12T21:01:48.595Z,74524.88
2022-08-12T21:04:35.961Z,74541.31
2022-08-12T21:07:09.266Z,74529.00
2022-08-12T21:09:42.177Z,74520.78
2022-08-12T21:12:27.368Z,74514.63
2022-08-12T21:15:17.400Z,74520.78
2022-08-12T21:18:08.176Z,74537.22
2022-08-12T21:20:36.923Z,74537.22
2022-08-12T21:23:06.460Z,74533.09
2022-08-12T21:25:35.950Z,74545.44
2022-08-12T21:28:13.280Z,74541.31
2022-08-12T21:31:10.504Z,74541.31
2022-08-12T21:33:32.075Z,74551.59
2022-08-12T21:36:22.778Z,74535.16
2022-08-12T21:39:18.543Z,74533.09
2022-08-12T21:41:50.914Z,74553.66
2022-08-12T21:44:24.150Z,74545.44
2022-08-12T21:47:19.972Z,74537.22
2022-08-12T21:50:03.285Z,74557.75
2022-08-12T21:52:36.504Z,74578.31
2022-08-12T21:55:08.623Z,74578.31
2022-08-12T21:57:53.083Z,74590.63
2022-08-12T22:00:33.084Z,74586.53
2022-08-12T22:04:11.055Z,74578.31
2022-08-12T22:06:26.500Z,74557.75
2022-08-12T22:09:04.080Z,74578.31
2022-08-12T22:11:41.945Z,74582.41
2022-08-12T22:14:17.956Z,74594.75
2022-08-12T22:16:50.535Z,74580.34
2022-08-12T22:19:22.639Z,74565.97
2022-08-12T22:21:53.384Z,74557.75
2022-08-12T22:24:26.829Z,74551.59
2022-08-12T22:26:59.251Z,74549.53
2022-08-12T22:29:45.027Z,74545.44
2022-08-12T22:32:15.750Z,74545.44
2022-08-12T22:34:44.565Z,74547.47
2022-08-12T22:37:19.790Z,74541.31
2022-08-12T22:39:49.269Z,74533.09
2022-08-12T22:42:35.952Z,74565.97
2022-08-12T22:45:23.268Z,74574.19
2022-08-12T22:47:55.023Z,74578.31
2022-08-12T22:50:29.407Z,74588.56
2022-08-12T22:53:16.598Z,74576.25
2022-08-12T22:56:00.342Z,74563.91
2022-08-12T22:58:33.861Z,74570.09
2022-08-12T23:01:02.404Z,74594.75
2022-08-12T23:03:48.115Z,74598.84
2022-08-12T23:06:23.896Z,74607.06
2022-08-12T23:08:52.656Z,74598.84
2022-08-12T23:11:23.677Z,74596.78
2022-08-12T23:13:57.103Z,74598.84
2022-08-12T23:16:31.029Z,74635.81
2022-08-12T23:19:10.952Z,74642.00
2022-08-12T23:22:04.146Z,74652.25
2022-08-12T23:24:53.693Z,74648.16
2022-08-12T23:27:50.354Z,74652.25
2022-08-12T23:30:24.762Z,74639.94
2022-08-12T23:33:00.134Z,74635.81
2022-08-12T23:35:45.655Z,74644.03
2022-08-12T23:38:31.118Z,74656.38
2022-08-12T23:41:03.844Z,74656.38
2022-08-12T23:43:39.472Z,74664.59
2022-08-12T23:46:19.236Z,74676.91
2022-08-12T23:48:48.127Z,74670.75
2022-08-12T23:51:25.323Z,74672.81
2022-08-12T23:53:59.706Z,74689.25
2022-08-12T23:56:29.250Z,74681.03
2022-08-12T23:58:57.424Z,74681.03
